Time;durP1;ratioP1;P1;durP2;ratioP2;P2;SDS_P1;SDS_P2;PMS_P1;PMS_P2;Temp;Humidity;BMP_temperature;BMP_pressure;BME280_temperature;BME280_humidity;BME280_pressure;Samples;Min_cycle;Max_cycle;Signal;HPM_P1;HPM_P2
2024/04/03 00:00:32;;;;;;;17.23;4.35;;;;;;;10.77;100.00;100668.09;4993589;28;20308;-63
2024/04/03 00:02:58;;;;;;;17.33;4.18;;;;;;;10.80;100.00;100662.59;4993787;28;20241;-63
2024/04/03 00:05:23;;;;;;;15.35;3.90;;;;;;;10.70;100.00;100669.31;4996709;28;20182;-63
2024/04/03 00:07:48;;;;;;;15.57;4.28;;;;;;;10.64;100.00;100662.47;4996920;28;20194;-64
2024/04/03 00:10:14;;;;;;;16.55;5.13;;;;;;;10.77;100.00;100662.75;4996482;28;20656;-63
2024/04/03 00:12:39;;;;;;;22.08;4.57;;;;;;;10.46;100.00;100621.31;4996662;28;20182;-63
2024/04/03 00:15:05;;;;;;;19.27;3.35;;;;;;;10.65;100.00;100657.97;4996533;28;20194;-62
2024/04/03 00:17:31;;;;;;;10.73;2.55;;;;;;;10.69;100.00;100659.56;4996784;28;20189;-64
2024/04/03 00:19:56;;;;;;;14.63;4.03;;;;;;;10.77;100.00;100659.22;4996389;28;20193;-64
2024/04/03 00:22:22;;;;;;;16.75;3.00;;;;;;;10.88;100.00;100654.22;4996359;28;20182;-64
2024/04/03 00:24:47;;;;;;;11.52;3.78;;;;;;;10.94;100.00;100651.22;4996337;28;20189;-64
2024/04/03 00:27:12;;;;;;;11.52;2.67;;;;;;;11.04;100.00;100641.81;4996336;28;20587;-64
2024/04/03 00:29:38;;;;;;;7.22;2.20;;;;;;;11.12;100.00;100641.44;4996182;28;20181;-62
2024/04/03 00:32:03;;;;;;;14.40;2.58;;;;;;;10.93;100.00;100645.94;4996460;28;20185;-64
2024/04/03 00:34:29;;;;;;;9.70;2.47;;;;;;;10.97;100.00;100632.31;4995915;28;20572;-63
2024/04/03 00:36:54;;;;;;;8.80;2.05;;;;;;;11.02;100.00;100637.47;4996251;28;20178;-63
2024/04/03 00:39:20;;;;;;;10.95;1.85;;;;;;;11.04;100.00;100628.41;4995891;28;20190;-63
2024/04/03 00:41:46;;;;;;;13.98;2.42;;;;;;;11.09;100.00;100619.25;4996385;28;20232;-63
2024/04/03 00:44:11;;;;;;;8.00;2.65;;;;;;;11.20;100.00;100614.25;4978562;28;20600;-63
2024/04/03 00:46:37;;;;;;;8.13;2.75;;;;;;;11.13;100.00;100620.84;4994789;28;20217;-62
2024/04/03 00:49:02;;;;;;;5.50;1.77;;;;;;;11.07;100.00;100622.00;4995994;28;20236;-64
2024/04/03 00:51:28;;;;;;;9.50;2.53;;;;;;;10.69;100.00;100574.69;4996834;28;20182;-63
2024/04/03 00:53:53;;;;;;;5.35;1.73;;;;;;;10.85;100.00;100612.34;4980064;28;20200;-63
2024/04/03 00:56:20;;;;;;;8.73;2.35;;;;;;;10.90;100.00;100598.72;4998814;28;20212;-64
2024/04/03 00:58:45;;;;;;;8.70;2.67;;;;;;;10.82;100.00;100614.31;4998470;28;20248;-64
2024/04/03 01:01:13;;;;;;;5.70;2.30;;;;;;;11.02;100.00;100614.19;4999331;28;20186;-63
2024/04/03 01:03:38;;;;;;;16.27;3.13;;;;;;;11.10;100.00;100605.78;4979553;28;20277;-62
2024/04/03 01:06:04;;;;;;;7.47;2.28;;;;;;;11.14;100.00;100602.00;4996076;28;20273;-62
2024/04/03 01:08:30;;;;;;;8.93;2.80;;;;;;;11.29;100.00;100600.41;4995725;28;20244;-62
2024/04/03 01:10:59;;;;;;;7.78;3.00;;;;;;;11.45;100.00;100595.13;4995833;28;20712;-62
2024/04/03 01:13:25;;;;;;;7.80;3.45;;;;;;;11.22;100.00;100590.91;4994097;28;20185;-63
2024/04/03 01:15:54;;;;;;;8.38;3.65;;;;;;;11.27;100.00;100588.88;4995500;28;20707;-63
2024/04/03 01:18:20;;;;;;;12.43;4.47;;;;;;;11.19;100.00;100581.22;4995396;28;20256;-63
2024/04/03 01:20:45;;;;;;;8.27;3.38;;;;;;;11.05;100.00;100576.53;4994371;28;20657;-62
2024/04/03 01:23:10;;;;;;;12.48;3.72;;;;;;;11.13;100.00;100576.13;4995717;28;20185;-64
2024/04/03 01:25:36;;;;;;;10.55;3.30;;;;;;;11.17;100.00;100574.19;4995434;28;20198;-64
2024/04/03 01:28:01;;;;;;;9.63;3.22;;;;;;;10.86;100.00;100571.22;4994984;28;20254;-64
2024/04/03 01:30:26;;;;;;;7.75;3.38;;;;;;;10.83;100.00;100543.72;4994263;28;20186;-64
2024/04/03 01:32:52;;;;;;;14.95;4.85;;;;;;;11.09;100.00;100560.28;4994990;28;20664;-64
2024/04/03 01:35:17;;;;;;;11.57;3.50;;;;;;;11.12;100.00;100558.34;4995275;28;20212;-63
2024/04/03 01:37:43;;;;;;;12.43;4.10;;;;;;;11.11;100.00;100553.06;4995045;28;20312;-64
2024/04/03 01:40:08;;;;;;;10.15;4.28;;;;;;;11.03;100.00;100546.25;4994163;28;20232;-63
2024/04/03 01:42:34;;;;;;;14.50;5.07;;;;;;;11.19;100.00;100545.47;4995016;28;20178;-63
2024/04/03 01:44:59;;;;;;;16.33;7.80;;;;;;;10.89;100.00;100546.09;4995191;28;20571;-63
2024/04/03 01:47:24;;;;;;;17.75;7.63;;;;;;;10.97;100.00;100543.88;4994899;28;20181;-64
2024/04/03 01:49:54;;;;;;;16.10;8.27;;;;;;;10.93;100.00;100539.59;4995324;28;20273;-64
2024/04/03 01:52:19;;;;;;;18.42;8.88;;;;;;;11.01;100.00;100536.53;4977645;28;20545;-64
2024/04/03 01:54:45;;;;;;;25.50;10.02;;;;;;;10.93;100.00;100533.38;4996030;28;20210;-64
2024/04/03 01:57:10;;;;;;;24.80;9.20;;;;;;;11.07;100.00;100530.88;4995111;28;20300;-64
2024/04/03 01:59:35;;;;;;;27.60;10.70;;;;;;;10.91;100.00;100527.25;4994937;28;20232;-63
2024/04/03 02:02:01;;;;;;;21.25;10.10;;;;;;;10.92;100.00;100528.97;4995796;28;20198;-63
2024/04/03 02:04:26;;;;;;;22.75;9.43;;;;;;;11.03;100.00;100529.31;4994531;28;20220;-63
2024/04/03 02:06:51;;;;;;;24.17;10.00;;;;;;;11.05;100.00;100517.56;4995571;28;20661;-63
2024/04/03 02:09:17;;;;;;;25.15;11.35;;;;;;;10.86;100.00;100480.09;4995444;28;20925;-64
2024/04/03 02:11:42;;;;;;;22.17;10.85;;;;;;;11.15;100.00;100523.34;4995023;28;20181;-64
2024/04/03 02:14:12;;;;;;;22.15;10.13;;;;;;;11.12;100.00;100519.91;4995247;28;20232;-62
2024/04/03 02:16:37;;;;;;;24.95;11.48;;;;;;;10.75;100.00;100516.41;4994905;28;20185;-64
2024/04/03 02:19:02;;;;;;;19.10;9.90;;;;;;;10.92;100.00;100512.88;4994830;28;20211;-64
2024/04/03 02:21:28;;;;;;;23.15;11.10;;;;;;;10.89;100.00;100511.25;4994158;28;20641;-64
2024/04/03 02:23:53;;;;;;;18.60;11.07;;;;;;;10.83;100.00;100500.84;4994252;28;20622;-62
2024/04/03 02:26:18;;;;;;;27.02;12.57;;;;;;;10.88;100.00;100493.41;4993551;28;20221;-62
2024/04/03 02:28:43;;;;;;;18.60;12.52;;;;;;;10.97;100.00;100490.28;4994562;28;20210;-65
2024/04/03 02:31:09;;;;;;;25.63;13.93;;;;;;;10.95;100.00;100493.97;4994387;28;20174;-62
2024/04/03 02:33:34;;;;;;;24.48;14.48;;;;;;;10.83;100.00;100480.25;4994312;28;20256;-63
2024/04/03 02:36:08;;;;;;;30.20;17.98;;;;;;;10.70;100.00;100474.66;4993945;28;20229;-62
2024/04/03 02:38:33;;;;;;;25.05;16.00;;;;;;;10.83;100.00;100471.34;4993923;28;20186;-62
2024/04/03 02:40:58;;;;;;;29.77;15.75;;;;;;;11.01;100.00;100470.44;4994103;28;20251;-62
2024/04/03 02:43:24;;;;;;;31.00;16.90;;;;;;;10.90;100.00;100470.09;4992453;28;20210;-62
2024/04/03 02:45:56;;;;;;;28.52;16.08;;;;;;;10.79;100.00;100472.44;4993985;28;20611;-62
2024/04/03 02:48:21;;;;;;;30.25;17.45;;;;;;;10.77;100.00;100469.84;4980800;28;20594;-63
2024/04/03 02:50:48;;;;;;;28.45;17.08;;;;;;;10.74;100.00;100458.41;4993636;28;20204;-62
2024/04/03 02:53:15;;;;;;;33.60;19.05;;;;;;;10.99;100.00;100466.94;4994108;28;20185;-62
2024/04/03 02:55:40;;;;;;;28.20;18.88;;;;;;;10.99;100.00;100458.03;4992401;28;20213;-62
2024/04/03 02:58:06;;;;;;;36.28;20.17;;;;;;;11.06;100.00;100454.09;4994004;28;20182;-62
2024/04/03 03:00:31;;;;;;;36.30;18.83;;;;;;;10.85;100.00;100450.69;4994181;28;20637;-62
2024/04/03 03:02:56;;;;;;;29.38;18.58;;;;;;;11.04;100.00;100440.78;4993816;28;20252;-62
2024/04/03 03:05:22;;;;;;;33.22;18.23;;;;;;;11.14;100.00;100445.66;4993566;28;20194;-63
2024/04/03 03:07:47;;;;;;;27.42;18.45;;;;;;;11.19;100.00;100439.13;4993681;28;20595;-62
2024/04/03 03:10:12;;;;;;;37.33;20.90;;;;;;;11.22;100.00;100432.72;4993450;28;20201;-62
2024/04/03 03:12:38;;;;;;;35.72;19.23;;;;;;;11.29;100.00;100436.81;4993775;28;20186;-62
2024/04/03 03:15:03;;;;;;;31.38;17.73;;;;;;;11.30;100.00;100430.53;4993385;28;20189;-64
2024/04/03 03:17:29;;;;;;;34.20;20.33;;;;;;;11.05;100.00;100394.25;4993376;28;20186;-62
2024/04/03 03:19:54;;;;;;;32.70;19.35;;;;;;;11.37;100.00;100428.38;4993646;28;20181;-62
2024/04/03 03:22:20;;;;;;;30.58;19.00;;;;;;;11.19;100.00;100423.03;4993592;28;20217;-62
2024/04/03 03:24:46;;;;;;;36.40;21.75;;;;;;;11.32;100.00;100415.22;4993461;28;20629;-63
2024/04/03 03:27:11;;;;;;;31.10;19.85;;;;;;;11.26;100.00;100418.22;4993459;28;20182;-63
2024/04/03 03:29:36;;;;;;;33.22;20.10;;;;;;;11.36;100.00;100413.22;4993108;28;20653;-63
2024/04/03 03:32:02;;;;;;;31.10;20.38;;;;;;;11.52;100.00;100410.59;4993312;28;20190;-63
2024/04/03 03:34:27;;;;;;;30.40;19.08;;;;;;;11.41;100.00;100405.81;4993368;28;20197;-63
2024/04/03 03:36:53;;;;;;;32.65;20.02;;;;;;;11.21;100.00;100406.88;4993945;28;20258;-62
2024/04/03 03:39:18;;;;;;;30.23;18.98;;;;;;;11.32;100.00;100404.47;4996974;28;20174;-63
2024/04/03 03:41:43;;;;;;;28.90;19.50;;;;;;;11.28;100.00;100405.59;4997268;28;20296;-63
2024/04/03 03:44:09;;;;;;;28.23;18.45;;;;;;;11.42;100.00;100389.66;4997228;28;20190;-64
2024/04/03 03:46:34;;;;;;;26.52;17.45;;;;;;;11.34;100.00;100375.75;4997152;28;20182;-64
2024/04/03 03:54:27;;;;;;;29.65;18.92;;;;;;;11.23;100.00;100356.72;4986001;28;20220;-63
2024/04/03 03:56:52;;;;;;;27.13;17.15;;;;;;;11.37;100.00;100388.16;4995862;28;20186;-63
2024/04/03 03:59:18;;;;;;;24.10;16.88;;;;;;;11.32;100.00;100382.19;4996662;28;20688;-63
2024/04/03 04:01:43;;;;;;;25.98;16.52;;;;;;;11.40;100.00;100391.53;4996864;28;20659;-64
2024/04/03 04:04:08;;;;;;;33.90;17.38;;;;;;;11.00;100.00;100384.75;4997188;28;20186;-63
2024/04/03 04:06:34;;;;;;;28.77;17.45;;;;;;;11.21;100.00;100386.28;4995967;28;20269;-63
2024/04/03 04:08:59;;;;;;;29.45;17.75;;;;;;;11.33;100.00;100389.25;4985126;28;20236;-63
2024/04/03 04:11:24;;;;;;;32.08;19.45;;;;;;;11.29;100.00;100368.94;4996748;28;20232;-63
2024/04/03 04:13:50;;;;;;;27.35;17.35;;;;;;;11.19;100.00;100384.63;4997214;28;20182;-63
2024/04/03 04:16:15;;;;;;;28.98;17.40;;;;;;;11.00;100.00;100390.09;4996476;28;20637;-63
2024/04/03 04:18:41;;;;;;;30.55;17.83;;;;;;;11.04;100.00;100381.81;4996786;28;20265;-63
2024/04/03 04:21:06;;;;;;;32.92;17.15;;;;;;;11.25;100.00;100376.25;4996537;28;20193;-63
2024/04/03 04:23:32;;;;;;;25.75;16.05;;;;;;;11.09;100.00;100372.66;4996783;28;20630;-63
2024/04/03 04:26:04;;;;;;;24.90;15.30;;;;;;;11.15;100.00;100367.84;4996269;28;20229;-64
2024/04/03 04:28:30;;;;;;;24.60;16.40;;;;;;;11.21;100.00;100367.53;4996637;28;20201;-63
2024/04/03 04:31:07;;;;;;;26.88;15.88;;;;;;;11.28;100.00;100364.50;4996224;28;20656;-64
2024/04/03 04:33:36;;;;;;;25.73;15.23;;;;;;;11.10;100.00;100353.81;4996487;28;20217;-63
2024/04/03 04:36:02;;;;;;;25.20;14.27;;;;;;;11.35;100.00;100364.09;4996140;28;20198;-64
2024/04/03 04:38:28;;;;;;;21.17;13.63;;;;;;;11.34;100.00;100357.00;4995132;28;20193;-64
2024/04/03 04:40:58;;;;;;;20.35;12.45;;;;;;;11.02;100.00;100353.34;4996089;28;20182;-63
2024/04/03 04:43:24;;;;;;;20.02;11.43;;;;;;;11.12;100.00;100359.97;4978705;28;20178;-63
2024/04/03 04:46:03;;;;;;;22.08;11.95;;;;;;;11.07;100.00;100362.91;4994987;28;20201;-63
2024/04/03 04:48:30;;;;;;;17.52;8.93;;;;;;;10.99;100.00;100353.50;4978235;28;20188;-63
2024/04/03 04:51:00;;;;;;;21.80;10.90;;;;;;;10.70;100.00;100351.41;4996231;28;20185;-64
2024/04/03 04:53:26;;;;;;;15.85;8.18;;;;;;;10.58;100.00;100362.75;4996362;28;20186;-63
2024/04/03 04:56:04;;;;;;;17.35;8.88;;;;;;;10.81;100.00;100358.00;4994668;28;20281;-63
2024/04/03 04:58:29;;;;;;;17.80;7.82;;;;;;;10.64;100.00;100361.56;4995918;28;20287;-63
2024/04/03 05:01:02;;;;;;;16.27;7.18;;;;;;;10.84;100.00;100360.53;4996277;28;20577;-63
2024/04/03 05:03:28;;;;;;;12.45;6.22;;;;;;;11.10;100.00;100355.63;4994512;28;20186;-63
2024/04/03 05:05:53;;;;;;;15.85;6.05;;;;;;;10.88;100.00;100348.72;4995839;28;20719;-63
2024/04/03 05:08:19;;;;;;;17.65;6.15;;;;;;;11.09;100.00;100353.88;4995441;28;20710;-63
2024/04/03 05:10:58;;;;;;;12.18;5.88;;;;;;;11.23;100.00;100346.00;4995683;28;20205;-63
2024/04/03 05:13:25;;;;;;;11.73;5.20;;;;;;;11.07;100.00;100329.84;4995537;28;20182;-63
2024/04/03 05:15:51;;;;;;;12.27;5.78;;;;;;;11.12;100.00;100346.56;4995766;28;20198;-63
2024/04/03 05:18:16;;;;;;;13.18;6.03;;;;;;;11.14;100.00;100349.16;4995343;28;20228;-64
2024/04/03 05:20:42;;;;;;;12.32;5.80;;;;;;;11.06;100.00;100347.75;4995252;28;20182;-63
2024/04/03 05:23:07;;;;;;;9.25;5.80;;;;;;;11.11;100.00;100338.59;4995163;28;20197;-63
2024/04/03 05:25:33;;;;;;;12.02;5.20;;;;;;;11.21;100.00;100335.34;4995209;28;20272;-64
2024/04/03 05:27:58;;;;;;;15.27;5.65;;;;;;;11.28;100.00;100340.38;4995063;28;20719;-63
2024/04/03 05:30:24;;;;;;;9.27;5.32;;;;;;;11.09;100.00;100336.00;4995790;28;20193;-63
2024/04/03 05:32:50;;;;;;;13.38;5.82;;;;;;;11.10;100.00;100331.50;4995151;28;20213;-63
2024/04/03 05:35:16;;;;;;;11.02;5.47;;;;;;;11.13;100.00;100345.59;4995136;28;20233;-63
2024/04/03 05:37:45;;;;;;;15.10;5.53;;;;;;;11.14;100.00;100323.22;4993422;28;20185;-63
2024/04/03 05:40:11;;;;;;;17.02;5.72;;;;;;;11.20;100.00;100335.44;4995128;28;20194;-63
2024/04/03 05:42:37;;;;;;;12.63;5.72;;;;;;;11.33;100.00;100340.97;4994785;28;20234;-63
2024/04/03 05:45:02;;;;;;;15.43;6.45;;;;;;;11.21;100.00;100331.81;4993827;28;20236;-63
2024/04/03 05:47:28;;;;;;;7.30;4.45;;;;;;;11.19;100.00;100331.00;4994846;28;20201;-63
2024/04/03 05:49:54;;;;;;;14.63;6.57;;;;;;;11.14;100.00;100323.22;4994838;28;20189;-63
2024/04/03 05:52:20;;;;;;;14.38;6.90;;;;;;;11.03;100.00;100329.16;4994564;28;20190;-63
2024/04/03 05:54:49;;;;;;;12.65;5.75;;;;;;;11.09;100.00;100322.59;4994518;28;20728;-63
2024/04/03 05:57:16;;;;;;;13.80;5.95;;;;;;;11.07;100.00;100322.69;4994731;28;20182;-64
2024/04/03 05:59:42;;;;;;;11.75;5.90;;;;;;;11.18;100.00;100329.25;4994364;28;20229;-63
2024/04/03 06:02:07;;;;;;;8.55;5.20;;;;;;;11.40;100.00;100323.63;4992597;28;20182;-63
2024/04/03 06:04:32;;;;;;;10.75;5.97;;;;;;;11.21;100.00;100323.78;4994308;28;20189;-63
2024/04/03 06:06:58;;;;;;;9.35;5.22;;;;;;;11.20;100.00;100327.38;4994048;28;20181;-63
2024/04/03 06:09:24;;;;;;;10.00;5.35;;;;;;;10.89;100.00;100324.53;4994646;28;20240;-63
2024/04/03 06:11:49;;;;;;;11.15;5.25;;;;;;;10.95;100.00;100323.34;4994140;28;20189;-63
2024/04/03 06:14:14;;;;;;;10.25;5.38;;;;;;;10.95;100.00;100309.94;4994305;28;20623;-63
2024/04/03 06:16:40;;;;;;;7.72;5.30;;;;;;;11.13;100.00;100320.63;4994079;28;20212;-63
2024/04/03 06:19:09;;;;;;;11.20;5.72;;;;;;;11.16;100.00;100323.13;4994169;28;20205;-63
2024/04/03 06:21:35;;;;;;;12.93;6.28;;;;;;;11.03;100.00;100331.84;4993230;28;20240;-63
2024/04/03 06:24:03;;;;;;;16.90;6.93;;;;;;;10.75;100.00;100326.19;4994511;28;20197;-63
2024/04/03 06:26:28;;;;;;;13.48;6.85;;;;;;;11.05;100.00;100319.19;4976877;28;20706;-63
2024/04/03 06:28:53;;;;;;;11.18;6.80;;;;;;;11.01;100.00;100320.34;4993589;28;20194;-63
2024/04/03 06:31:19;;;;;;;10.10;6.07;;;;;;;11.22;100.00;100317.44;4993826;28;20178;-63
2024/04/03 06:33:44;;;;;;;15.40;7.50;;;;;;;11.31;100.00;100311.56;4994460;28;20711;-63
2024/04/03 06:36:09;;;;;;;16.77;8.27;;;;;;;11.21;100.00;100310.38;4983062;28;20208;-63
2024/04/03 06:38:35;;;;;;;13.63;9.77;;;;;;;11.13;100.00;100313.44;4993961;28;20189;-63
2024/04/03 06:41:00;;;;;;;17.60;9.30;;;;;;;11.20;100.00;100304.13;4994058;28;20268;-63
2024/04/03 06:43:26;;;;;;;17.40;9.98;;;;;;;11.19;100.00;100305.09;4994181;28;20185;-63
2024/04/03 06:45:55;;;;;;;17.85;10.70;;;;;;;11.24;100.00;100297.66;4994072;28;20202;-63
2024/04/03 06:48:21;;;;;;;18.55;10.63;;;;;;;11.26;100.00;100300.25;4987030;28;20194;-63
2024/04/03 06:50:53;;;;;;;18.42;12.70;;;;;;;11.23;100.00;100300.41;4991565;28;20548;-63
2024/04/03 06:53:19;;;;;;;21.33;13.57;;;;;;;11.03;100.00;100294.31;4986797;28;20247;-63
2024/04/03 06:56:05;;;;;;;27.42;16.55;;;;;;;11.42;100.00;100290.41;4994199;28;20205;-64
2024/04/03 06:58:41;;;;;;;23.13;13.48;;;;;;;11.47;100.00;100283.91;4993225;28;20225;-63
2024/04/03 07:01:07;;;;;;;17.42;14.32;;;;;;;11.47;100.00;100291.94;4979509;28;20532;-64
2024/04/03 07:03:33;;;;;;;24.92;15.05;;;;;;;11.54;100.00;100287.97;4992924;28;20178;-64
2024/04/03 07:05:59;;;;;;;22.35;15.18;;;;;;;11.38;100.00;100296.03;4994121;28;20197;-64
2024/04/03 07:08:24;;;;;;;21.52;15.40;;;;;;;11.35;100.00;100294.38;4993922;28;20556;-64
2024/04/03 07:10:50;;;;;;;25.42;15.23;;;;;;;11.40;100.00;100286.94;4993687;28;20174;-63
2024/04/03 07:13:15;;;;;;;19.77;14.80;;;;;;;11.39;100.00;100290.59;4992558;28;20240;-63
2024/04/03 07:15:45;;;;;;;23.25;16.15;;;;;;;11.09;100.00;100265.44;4993443;28;20236;-64
2024/04/03 07:18:11;;;;;;;21.98;14.82;;;;;;;11.29;100.00;100299.22;4993657;28;20192;-63
2024/04/03 07:20:36;;;;;;;24.77;13.93;;;;;;;11.16;100.00;100293.63;4976075;28;20186;-63
2024/04/03 07:23:02;;;;;;;23.67;15.32;;;;;;;11.35;100.00;100294.38;4993476;28;20554;-63
2024/04/03 07:25:27;;;;;;;28.35;14.73;;;;;;;11.35;100.00;100278.28;4992909;28;20221;-64
2024/04/03 07:27:54;;;;;;;25.77;14.60;;;;;;;11.46;100.00;100285.72;4992810;28;20575;-63
2024/04/03 07:30:19;;;;;;;21.30;13.35;;;;;;;11.31;100.00;100290.13;4992416;28;20251;-63
2024/04/03 07:32:45;;;;;;;19.27;13.98;;;;;;;11.34;100.00;100281.06;4992616;28;20668;-64
2024/04/03 07:35:11;;;;;;;19.35;13.57;;;;;;;11.37;100.00;100281.72;4991874;28;20604;-63
2024/04/03 07:37:44;;;;;;;19.63;13.15;;;;;;;11.35;100.00;100267.56;4993016;28;20216;-63
2024/04/03 07:40:10;;;;;;;20.88;12.95;;;;;;;11.53;100.00;100280.88;4992999;28;20714;-64
2024/04/03 07:42:40;;;;;;;18.85;13.23;;;;;;;11.42;100.00;100268.97;4993034;28;20177;-63
2024/04/03 07:45:06;;;;;;;16.90;12.23;;;;;;;11.49;100.00;100274.84;4993417;28;20190;-64
2024/04/03 07:47:33;;;;;;;19.58;12.80;;;;;;;11.55;100.00;100284.34;4992884;28;20181;-63
2024/04/03 07:49:59;;;;;;;15.88;12.60;;;;;;;11.36;100.00;100276.47;4993354;28;20747;-63
2024/04/03 07:52:24;;;;;;;19.60;11.45;;;;;;;11.46;100.00;100275.00;4993029;28;20265;-64
2024/04/03 07:54:50;;;;;;;20.02;12.30;;;;;;;11.45;100.00;100262.53;4993034;28;20220;-63
2024/04/03 07:57:15;;;;;;;17.60;11.88;;;;;;;11.77;100.00;100276.81;4992841;28;20213;-64
2024/04/03 07:59:41;;;;;;;18.35;12.30;;;;;;;11.83;100.00;100282.78;4992640;28;20600;-64
2024/04/03 08:02:07;;;;;;;22.48;11.88;;;;;;;11.81;100.00;100276.63;4993200;28;20213;-62
2024/04/03 08:04:32;;;;;;;17.60;11.80;;;;;;;12.08;100.00;100280.47;4992952;28;20186;-63
2024/04/03 08:07:01;;;;;;;18.65;11.27;;;;;;;12.27;100.00;100277.53;4992980;28;20273;-63
2024/04/03 08:09:30;;;;;;;19.45;12.60;;;;;;;12.13;100.00;100278.34;4993029;28;20217;-64
2024/04/03 08:11:55;;;;;;;18.50;13.30;;;;;;;11.92;100.00;100274.22;4993160;28;20185;-63
2024/04/03 08:14:21;;;;;;;16.20;11.35;;;;;;;11.90;100.00;100268.94;4992733;28;20198;-63
2024/04/03 08:16:46;;;;;;;20.73;12.52;;;;;;;11.99;100.00;100281.00;4992066;28;20205;-63
2024/04/03 08:19:11;;;;;;;17.75;12.80;;;;;;;12.12;100.00;100273.09;4993068;28;20190;-63
2024/04/03 08:21:37;;;;;;;18.27;12.05;;;;;;;12.20;100.00;100270.78;4992590;28;20182;-64
2024/04/03 08:24:02;;;;;;;15.48;11.20;;;;;;;12.28;100.00;100276.59;4981740;28;20233;-63
2024/04/03 08:26:27;;;;;;;16.70;10.65;;;;;;;12.18;100.00;100269.19;4985147;28;20187;-63
2024/04/03 08:28:53;;;;;;;17.30;12.57;;;;;;;12.28;100.00;100278.41;4996286;28;20209;-63
2024/04/03 08:31:18;;;;;;;15.80;11.27;;;;;;;12.39;100.00;100273.28;4996816;28;20178;-63
2024/04/03 08:33:44;;;;;;;13.77;11.05;;;;;;;12.44;100.00;100286.44;4996161;28;20201;-63
2024/04/03 08:36:12;;;;;;;18.95;11.07;;;;;;;12.09;100.00;100282.16;4996202;28;20202;-63
2024/04/03 08:38:38;;;;;;;16.75;11.15;;;;;;;12.21;100.00;100275.22;4997051;28;20269;-63
2024/04/03 08:41:04;;;;;;;14.65;10.35;;;;;;;12.36;100.00;100275.25;4997247;28;20198;-64
2024/04/03 08:43:30;;;;;;;17.73;11.07;;;;;;;12.44;100.00;100276.53;4997447;28;20194;-63
2024/04/03 08:45:55;;;;;;;14.98;10.60;;;;;;;12.37;100.00;100279.69;4985921;28;20182;-63
2024/04/03 08:48:22;;;;;;;16.20;10.35;;;;;;;12.45;100.00;100280.06;4978999;28;20197;-63
2024/04/03 08:50:51;;;;;;;18.38;11.95;;;;;;;11.97;100.00;100264.09;4996496;28;20197;-63
2024/04/03 08:53:19;;;;;;;20.27;10.88;;;;;;;12.30;100.00;100265.75;4995967;28;20661;-63
2024/04/03 08:55:49;;;;;;;14.07;9.90;;;;;;;12.48;100.00;100275.41;4994647;28;20277;-63
2024/04/03 08:58:15;;;;;;;14.18;10.77;;;;;;;12.47;100.00;100272.81;4988015;28;20194;-63
2024/04/03 09:00:41;;;;;;;14.93;10.85;;;;;;;12.47;100.00;100273.66;4996126;28;20181;-63
2024/04/03 09:03:07;;;;;;;13.23;9.90;;;;;;;12.38;100.00;100268.00;4995646;28;20227;-64
2024/04/03 09:05:32;;;;;;;15.32;10.10;;;;;;;12.47;100.00;100237.88;4978508;28;20272;-64
2024/04/03 09:08:02;;;;;;;13.85;10.15;;;;;;;12.69;100.00;100266.97;4995112;28;20228;-64
2024/04/03 09:10:31;;;;;;;13.50;10.18;;;;;;;12.83;100.00;100268.81;4994315;28;20190;-63
2024/04/03 09:13:03;;;;;;;17.02;10.63;;;;;;;12.88;100.00;100255.09;4995710;28;20528;-64
2024/04/03 09:15:28;;;;;;;12.95;10.63;;;;;;;12.88;100.00;100257.78;4995555;28;20292;-64
2024/04/03 09:18:01;;;;;;;13.85;10.00;;;;;;;13.10;100.00;100249.25;4995228;28;20272;-64
2024/04/03 09:20:27;;;;;;;14.43;9.85;;;;;;;12.89;100.00;100252.31;4995300;28;20182;-64
2024/04/03 09:22:53;;;;;;;14.32;10.38;;;;;;;12.85;100.00;100235.53;4995245;28;20201;-64
2024/04/03 09:25:19;;;;;;;13.57;9.60;;;;;;;12.89;100.00;100249.63;4995119;28;20674;-63
2024/04/03 09:27:44;;;;;;;15.65;10.82;;;;;;;13.34;100.00;100255.78;4995401;28;20213;-63
2024/04/03 09:30:15;;;;;;;11.77;9.82;;;;;;;13.56;100.00;100246.34;4995412;28;20190;-63
2024/04/03 09:32:42;;;;;;;11.50;9.13;;;;;;;13.71;100.00;100250.72;4995223;28;20185;-63
2024/04/03 09:35:07;;;;;;;9.65;8.45;;;;;;;13.59;100.00;100253.34;4976906;28;20253;-63
2024/04/03 09:37:35;;;;;;;16.15;7.70;;;;;;;13.37;100.00;100241.28;4994923;28;20193;-63
2024/04/03 09:40:03;;;;;;;10.05;8.45;;;;;;;13.17;100.00;100261.38;4995180;28;20198;-63
2024/04/03 09:42:29;;;;;;;11.55;7.80;;;;;;;12.95;100.00;100253.75;4993951;28;20277;-63
2024/04/03 09:45:01;;;;;;;10.30;8.38;;;;;;;13.19;100.00;100246.84;4993436;28;20194;-64
2024/04/03 09:47:29;;;;;;;12.73;8.52;;;;;;;12.98;100.00;100256.25;4994845;28;20197;-64
2024/04/03 09:49:55;;;;;;;12.93;8.52;;;;;;;13.21;100.00;100254.81;4993672;28;20656;-64
2024/04/03 09:52:21;;;;;;;15.18;8.63;;;;;;;13.05;100.00;100238.78;4993738;28;20182;-63
2024/04/03 09:54:47;;;;;;;11.45;8.50;;;;;;;13.25;100.00;100268.94;4994747;28;20250;-64
2024/04/03 09:57:12;;;;;;;10.13;7.78;;;;;;;13.22;100.00;100261.94;4993324;28;20304;-64
2024/04/03 09:59:38;;;;;;;10.55;8.00;;;;;;;13.35;100.00;100267.41;4993113;28;20262;-64
2024/04/03 10:02:03;;;;;;;14.10;7.68;;;;;;;13.20;100.00;100272.78;4994634;28;20714;-64
2024/04/03 10:04:36;;;;;;;11.07;7.82;;;;;;;12.86;100.00;100271.31;4994330;28;20196;-64
2024/04/03 10:07:02;;;;;;;12.93;7.32;;;;;;;12.59;100.00;100266.69;4994621;28;20264;-63
2024/04/03 10:09:28;;;;;;;11.27;8.10;;;;;;;12.45;100.00;100264.84;4994130;28;20233;-63
2024/04/03 10:11:56;;;;;;;12.73;8.50;;;;;;;12.76;100.00;100275.56;4977078;28;20197;-63
2024/04/03 10:14:29;;;;;;;12.82;8.32;;;;;;;12.68;100.00;100262.59;4993418;28;20182;-63
2024/04/03 10:16:55;;;;;;;10.23;8.43;;;;;;;12.90;100.00;100282.78;4993185;28;20269;-64
2024/04/03 10:19:21;;;;;;;10.48;8.52;;;;;;;12.75;100.00;100279.19;4993383;28;20273;-64
2024/04/03 10:21:47;;;;;;;11.90;8.10;;;;;;;12.67;100.00;100274.28;4976788;28;20612;-64
2024/04/03 10:24:12;;;;;;;8.80;7.82;;;;;;;12.90;100.00;100277.38;4994227;28;20260;-64
2024/04/03 10:26:38;;;;;;;11.45;9.20;;;;;;;12.95;100.00;100277.97;4994463;28;20209;-65
2024/04/03 10:29:03;;;;;;;10.80;9.35;;;;;;;13.13;100.00;100271.44;4992793;28;20559;-64
2024/04/03 10:31:29;;;;;;;14.75;8.98;;;;;;;13.10;100.00;100266.25;4994054;28;20190;-63
2024/04/03 10:33:54;;;;;;;9.85;8.35;;;;;;;13.42;100.00;100266.06;4994236;28;20201;-64
2024/04/03 10:36:19;;;;;;;10.88;9.32;;;;;;;13.45;100.00;100260.47;4994057;28;20236;-64
2024/04/03 10:38:45;;;;;;;10.25;7.97;;;;;;;12.92;100.00;100262.03;4993975;28;20268;-63
2024/04/03 10:41:11;;;;;;;10.25;7.10;;;;;;;12.68;100.00;100262.59;4992865;28;20197;-64
2024/04/03 10:43:37;;;;;;;8.18;5.82;;;;;;;12.97;100.00;100249.16;4993969;28;20723;-65
2024/04/03 10:46:02;;;;;;;10.35;6.72;;;;;;;13.09;100.00;100260.97;4993404;28;20309;-64
2024/04/03 10:48:27;;;;;;;9.25;6.80;;;;;;;13.18;100.00;100257.69;4993301;28;20232;-63
2024/04/03 10:50:53;;;;;;;8.07;7.25;;;;;;;13.17;100.00;100250.59;4992490;28;20198;-63
2024/04/03 10:53:20;;;;;;;6.65;5.82;;;;;;;13.13;100.00;100239.16;4992744;28;20186;-63
2024/04/03 10:55:47;;;;;;;9.93;6.22;;;;;;;13.09;100.00;100248.38;4993256;28;20224;-64
2024/04/03 10:58:12;;;;;;;6.28;5.47;;;;;;;13.26;100.00;100257.19;4992326;28;20188;-63
2024/04/03 11:00:41;;;;;;;9.55;6.32;;;;;;;12.91;100.00;100262.97;4993516;28;20276;-63
2024/04/03 11:03:09;;;;;;;6.15;5.60;;;;;;;12.65;100.00;100247.50;4992539;28;20186;-63
2024/04/03 11:05:36;;;;;;;7.85;5.97;;;;;;;12.76;100.00;100254.06;4992208;28;20178;-63
2024/04/03 11:08:02;;;;;;;6.13;5.53;;;;;;;13.07;100.00;100254.81;4987069;28;20189;-65